Time;durP1;ratioP1;P1;durP2;ratioP2;P2;SDS_P1;SDS_P2;PMS_P1;PMS_P2;Temp;Humidity;BMP_temperature;BMP_pressure;BME280_temperature;BME280_humidity;BME280_pressure;Samples;Min_cycle;Max_cycle;Signal;HPM_P1;HPM_P2
2020/12/15 00:02:18;;;;;;;3.80;3.50;;;;;;;7.32;71.65;99931.81;5097335;28;20252;-81
2020/12/15 00:04:45;;;;;;;3.90;3.60;;;;;;;7.27;71.18;99923.19;5101598;28;20321;-80
2020/12/15 00:07:11;;;;;;;4.43;4.13;;;;;;;7.34;71.19;99917.91;5097591;28;20202;-81
2020/12/15 00:09:37;;;;;;;3.90;3.27;;;;;;;7.27;70.36;99915.41;5102601;28;20229;-81
2020/12/15 00:12:03;;;;;;;3.00;2.80;;;;;;;7.33;70.90;99921.41;5092472;28;20204;-81
2020/12/15 00:14:28;;;;;;;3.80;3.50;;;;;;;7.30;70.41;99921.44;5089890;28;20659;-80
2020/12/15 00:16:57;;;;;;;3.40;3.20;;;;;;;7.37;71.11;99922.19;5097102;28;20269;-80
2020/12/15 00:19:23;;;;;;;3.33;3.13;;;;;;;7.35;71.35;99919.63;5102026;28;20222;-81
2020/12/15 00:21:51;;;;;;;3.57;3.37;;;;;;;7.34;72.44;99915.31;5098516;28;20661;-81
2020/12/15 00:24:17;;;;;;;2.93;2.73;;;;;;;7.36;72.59;99900.56;5101040;28;20212;-80
2020/12/15 00:26:43;;;;;;;3.67;3.37;;;;;;;7.39;71.02;99906.59;5097599;28;20229;-81
2020/12/15 00:29:12;;;;;;;3.53;3.33;;;;;;;7.42;71.72;99911.75;5102565;28;20220;-80
2020/12/15 00:31:37;;;;;;;3.77;3.57;;;;;;;7.44;69.99;99908.25;5096850;28;20202;-81
2020/12/15 00:34:04;;;;;;;3.50;3.20;;;;;;;7.49;70.21;99903.84;5101623;28;20712;-80
2020/12/15 00:36:30;;;;;;;3.30;3.10;;;;;;;7.55;70.69;99903.75;5097382;28;20295;-80
2020/12/15 00:38:57;;;;;;;3.57;3.37;;;;;;;7.59;70.10;99899.38;5101773;28;20253;-80
2020/12/15 00:41:23;;;;;;;3.60;3.40;;;;;;;7.63;69.75;99898.44;5097523;28;20197;-80
2020/12/15 00:43:49;;;;;;;3.30;3.10;;;;;;;7.71;69.48;99900.91;5085090;28;20211;-81
2020/12/15 00:46:15;;;;;;;3.63;3.43;;;;;;;7.71;69.57;99896.59;5097285;28;20223;-80
2020/12/15 00:48:41;;;;;;;3.40;3.20;;;;;;;7.72;69.93;99903.47;5103191;28;20282;-81
2020/12/15 00:51:07;;;;;;;3.60;3.40;;;;;;;7.71;69.13;99899.19;5096683;28;20201;-80
2020/12/15 00:53:35;;;;;;;3.23;3.03;;;;;;;7.74;69.36;99900.88;5104914;28;20204;-80
2020/12/15 00:56:04;;;;;;;3.07;2.83;;;;;;;7.72;70.25;99906.09;5095238;28;20200;-81
2020/12/15 00:58:30;;;;;;;3.07;2.87;;;;;;;7.71;69.85;99901.78;5105543;28;20202;-81
2020/12/15 01:00:56;;;;;;;3.10;2.90;;;;;;;7.69;70.12;99908.75;5095446;28;20229;-80
2020/12/15 01:03:22;;;;;;;3.10;2.90;;;;;;;7.70;68.91;99914.78;5106661;28;20211;-80
2020/12/15 01:05:48;;;;;;;3.60;3.30;;;;;;;7.74;69.19;99906.91;5093289;28;20275;-81
2020/12/15 01:08:13;;;;;;;3.30;3.10;;;;;;;7.74;69.26;99893.06;5106281;28;20208;-81
2020/12/15 01:10:39;;;;;;;3.40;3.10;;;;;;;7.77;68.90;99906.03;5095493;28;20203;-81
2020/12/15 01:13:06;;;;;;;4.03;3.73;;;;;;;7.72;69.62;99893.09;5091471;28;20523;-81
2020/12/15 01:15:32;;;;;;;3.90;3.70;;;;;;;7.73;69.91;99901.72;5093318;28;20199;-80
2020/12/15 01:17:58;;;;;;;4.00;3.70;;;;;;;7.71;69.87;99891.41;5093387;28;20215;-81
2020/12/15 01:20:23;;;;;;;4.00;3.70;;;;;;;7.73;70.18;99889.63;5094495;28;20252;-80
2020/12/15 01:22:49;;;;;;;4.07;3.77;;;;;;;7.78;69.78;99873.94;5103578;28;20226;-80
2020/12/15 01:25:15;;;;;;;4.00;3.80;;;;;;;7.80;70.94;99873.94;5099601;28;20263;-81
2020/12/15 01:27:41;;;;;;;3.43;3.23;;;;;;;7.71;71.83;99869.72;5102567;28;20217;-81
2020/12/15 01:30:08;;;;;;;3.80;3.50;;;;;;;7.70;71.96;99866.28;5100674;28;20395;-81
2020/12/15 01:32:34;;;;;;;3.60;3.40;;;;;;;7.65;72.22;99862.03;5088805;28;20200;-81
2020/12/15 01:35:00;;;;;;;4.07;3.77;;;;;;;7.59;71.32;99870.81;5095291;28;20224;-81
2020/12/15 01:37:25;;;;;;;3.83;3.53;;;;;;;7.53;71.71;99874.38;5099617;28;20202;-80
2020/12/15 01:39:51;;;;;;;4.27;4.00;;;;;;;7.54;71.78;99870.03;5101780;28;20685;-80
2020/12/15 01:42:17;;;;;;;4.37;3.97;;;;;;;7.52;71.21;99862.25;5098713;28;20213;-80
2020/12/15 01:44:43;;;;;;;4.30;4.00;;;;;;;7.61;70.51;99868.16;5101708;28;20206;-81
2020/12/15 01:47:10;;;;;;;4.23;3.93;;;;;;;7.69;69.75;99854.19;5097335;28;20225;-80
2020/12/15 01:49:36;;;;;;;4.40;4.00;;;;;;;7.76;70.75;99860.97;5101460;28;20647;-80
2020/12/15 01:52:03;;;;;;;3.50;3.30;;;;;;;7.82;70.14;99844.44;5097258;28;20292;-81
2020/12/15 01:54:28;;;;;;;3.33;3.13;;;;;;;7.90;70.56;99844.31;5101807;28;20228;-80
2020/12/15 01:56:55;;;;;;;4.10;3.80;;;;;;;7.90;70.59;99837.34;5096447;28;20194;-81
2020/12/15 01:59:22;;;;;;;4.00;3.77;;;;;;;7.85;69.87;99836.59;5100641;28;20219;-80
2020/12/15 02:01:48;;;;;;;3.90;3.70;;;;;;;7.88;70.58;99835.69;5091066;28;20199;-80
2020/12/15 02:04:15;;;;;;;3.90;3.70;;;;;;;7.80;69.88;99833.22;5088136;28;20210;-81
2020/12/15 02:06:45;;;;;;;4.00;3.80;;;;;;;7.82;70.35;99822.81;5091555;28;20226;-80
2020/12/15 02:09:12;;;;;;;3.80;3.60;;;;;;;7.76;69.70;99828.97;5080998;28;20217;-80
2020/12/15 02:11:38;;;;;;;4.10;3.70;;;;;;;7.85;70.28;99830.53;5091820;28;20207;-80
2020/12/15 02:14:03;;;;;;;4.00;3.77;;;;;;;7.88;69.79;99820.94;5081260;28;20211;-80
2020/12/15 02:16:31;;;;;;;3.60;3.40;;;;;;;7.95;70.16;99813.91;5090603;28;20216;-80
2020/12/15 02:18:57;;;;;;;4.00;3.80;;;;;;;7.95;70.04;99806.13;5096017;28;20227;-81
2020/12/15 02:21:23;;;;;;;4.30;4.00;;;;;;;7.96;70.50;99800.88;5090842;28;20199;-80
2020/12/15 02:23:50;;;;;;;3.90;3.70;;;;;;;7.95;70.25;99801.75;5093398;28;20211;-81
2020/12/15 02:26:16;;;;;;;3.33;3.13;;;;;;;7.90;70.16;99808.78;5100557;28;20245;-80
2020/12/15 02:28:42;;;;;;;3.23;3.03;;;;;;;7.85;69.83;99795.03;5097562;28;20231;-80
2020/12/15 02:31:08;;;;;;;3.30;3.10;;;;;;;7.84;69.42;99793.31;5091082;28;20617;-80
2020/12/15 02:33:34;;;;;;;3.33;3.13;;;;;;;7.93;70.34;99787.09;5098047;28;20200;-80
2020/12/15 02:36:00;;;;;;;2.83;2.63;;;;;;;7.95;69.75;99772.34;5088884;28;20195;-80
2020/12/15 02:38:26;;;;;;;3.00;2.80;;;;;;;8.00;68.72;99777.44;5098454;28;20213;-80
2020/12/15 02:40:53;;;;;;;2.93;2.73;;;;;;;8.07;69.85;99781.63;5087488;28;20603;-80
2020/12/15 02:43:18;;;;;;;3.07;2.87;;;;;;;8.12;68.31;99779.78;5099546;28;20200;-81
2020/12/15 02:45:47;;;;;;;2.60;2.50;;;;;;;8.15;68.43;99787.53;5087192;28;20227;-80
2020/12/15 02:48:13;;;;;;;2.60;2.50;;;;;;;8.20;68.54;99782.25;5059429;28;20199;-81
2020/12/15 02:50:39;;;;;;;3.20;3.00;;;;;;;8.22;68.03;99786.50;5085913;28;20214;-80
2020/12/15 02:53:05;;;;;;;2.90;2.70;;;;;;;8.24;68.80;99800.34;5098677;28;20684;-80
2020/12/15 02:55:31;;;;;;;3.30;3.10;;;;;;;8.16;68.01;99829.06;5095337;28;20196;-80
2020/12/15 02:57:57;;;;;;;4.00;3.77;;;;;;;8.21;69.63;99829.00;5099112;28;20213;-80
2020/12/15 03:00:23;;;;;;;3.83;3.53;;;;;;;8.16;69.30;99828.22;5090262;28;20289;-80
2020/12/15 03:02:49;;;;;;;3.70;3.40;;;;;;;8.05;69.10;99843.19;5095294;28;20235;-81
2020/12/15 03:05:15;;;;;;;3.47;3.27;;;;;;;8.02;69.52;99849.28;5090941;28;20227;-80
2020/12/15 03:07:42;;;;;;;4.13;3.83;;;;;;;8.06;69.86;99848.34;5094481;28;20199;-80
2020/12/15 03:10:10;;;;;;;3.50;3.30;;;;;;;8.01;68.82;99841.50;5092059;28;20228;-80
2020/12/15 03:12:36;;;;;;;3.50;3.30;;;;;;;7.91;69.50;99853.84;5093169;28;20198;-80
2020/12/15 03:15:03;;;;;;;3.80;3.57;;;;;;;7.95;68.89;99847.69;5092506;28;20208;-81
2020/12/15 03:17:29;;;;;;;3.43;3.23;;;;;;;7.96;69.66;99857.19;5092745;28;20661;-80
2020/12/15 03:19:55;;;;;;;3.47;3.27;;;;;;;7.97;69.72;99851.13;5097667;28;20261;-80
2020/12/15 03:22:20;;;;;;;3.93;3.23;;;;;;;7.92;69.88;99860.72;5095568;28;20199;-80
2020/12/15 03:24:47;;;;;;;3.50;3.30;;;;;;;8.00;71.30;99869.25;5098934;28;20298;-80
2020/12/15 03:27:13;;;;;;;3.67;2.73;;;;;;;7.99;71.58;99861.47;5103335;28;20205;-81
2020/12/15 03:29:38;;;;;;;3.40;3.10;;;;;;;7.92;70.38;99839.94;5099419;28;20223;-80
2020/12/15 03:32:05;;;;;;;3.37;3.10;;;;;;;7.90;69.67;99844.31;5094471;28;20293;-80
2020/12/15 03:34:31;;;;;;;3.93;3.63;;;;;;;7.87;68.89;99839.16;5099141;28;20207;-80
2020/12/15 03:36:57;;;;;;;3.93;3.60;;;;;;;7.91;68.55;99843.44;5094007;28;20197;-79
2020/12/15 03:39:23;;;;;;;3.47;3.23;;;;;;;7.92;69.00;99838.19;5097545;28;20247;-80
2020/12/15 03:41:49;;;;;;;3.77;3.57;;;;;;;7.94;68.89;99826.03;5094673;28;20193;-81
2020/12/15 03:44:14;;;;;;;4.07;3.77;;;;;;;7.94;68.36;99823.44;5097960;28;20225;-80
2020/12/15 03:46:40;;;;;;;4.17;3.87;;;;;;;7.99;68.40;99827.69;5093791;28;20221;-80
2020/12/15 03:49:07;;;;;;;3.40;3.20;;;;;;;7.97;68.27;99827.72;5098258;28;20238;-80
2020/12/15 03:51:33;;;;;;;3.53;3.33;;;;;;;8.02;68.63;99825.03;5093875;28;20203;-80
2020/12/15 03:53:59;;;;;;;3.60;3.40;;;;;;;8.01;67.59;99834.59;5097188;28;20201;-80
2020/12/15 03:56:25;;;;;;;3.60;3.40;;;;;;;7.99;68.15;99844.16;5101418;28;20202;-80
2020/12/15 03:58:50;;;;;;;3.57;3.27;;;;;;;7.89;68.40;99846.06;5097809;28;20230;-80
2020/12/15 04:01:16;;;;;;;3.77;3.57;;;;;;;7.92;69.99;99835.59;5094013;28;20246;-80
2020/12/15 04:03:42;;;;;;;3.70;3.40;;;;;;;7.81;71.64;99815.88;5100223;28;20739;-80
2020/12/15 04:06:09;;;;;;;3.10;2.90;;;;;;;7.79;72.32;99828.03;5094112;28;20311;-80
2020/12/15 04:08:35;;;;;;;3.23;2.93;;;;;;;7.72;72.74;99812.56;5100644;28;20291;-80
2020/12/15 04:11:01;;;;;;;4.13;3.10;;;;;;;7.67;72.72;99819.59;5092201;28;20603;-80
2020/12/15 04:13:27;;;;;;;3.23;3.03;;;;;;;7.71;71.13;99822.97;5102058;28;20309;-80
2020/12/15 04:15:52;;;;;;;3.93;3.63;;;;;;;7.82;68.55;99821.06;5089592;28;20645;-80
2020/12/15 04:18:18;;;;;;;3.40;3.17;;;;;;;7.89;68.67;99829.63;5102884;28;20669;-80
2020/12/15 04:20:44;;;;;;;3.10;2.90;;;;;;;7.96;67.64;99820.81;5090314;28;20203;-80
2020/12/15 04:23:11;;;;;;;3.67;3.47;;;;;;;7.97;68.40;99822.53;5101459;28;20274;-80
2020/12/15 04:25:51;;;;;;;3.30;3.10;;;;;;;8.02;67.44;99818.09;5097785;28;20275;-81
2020/12/15 04:28:17;;;;;;;3.00;2.80;;;;;;;8.05;66.86;99820.66;5062174;28;20268;-80
2020/12/15 04:30:44;;;;;;;3.33;3.13;;;;;;;8.05;69.09;99815.44;5088347;28;20572;-80
2020/12/15 04:33:10;;;;;;;3.00;2.80;;;;;;;8.04;67.33;99813.72;5102288;28;20258;-80
2020/12/15 04:35:36;;;;;;;3.10;2.90;;;;;;;8.07;67.29;99818.03;5092081;28;20293;-80
2020/12/15 04:38:01;;;;;;;3.30;3.10;;;;;;;8.09;68.44;99811.91;5101321;28;20198;-80
2020/12/15 04:40:30;;;;;;;3.20;3.00;;;;;;;8.11;67.84;99804.94;5093189;28;20310;-80
2020/12/15 04:42:56;;;;;;;3.27;3.07;;;;;;;8.08;68.39;99807.56;5100102;28;20236;-80
2020/12/15 04:45:21;;;;;;;2.80;2.67;;;;;;;8.05;69.82;99810.25;5094306;28;20230;-80
2020/12/15 04:47:53;;;;;;;2.70;2.50;;;;;;;8.05;69.18;99815.44;5098949;28;20230;-80
2020/12/15 04:50:23;;;;;;;3.10;2.90;;;;;;;8.03;69.75;99813.78;5094236;28;20240;-80
2020/12/15 04:52:53;;;;;;;3.30;3.10;;;;;;;8.02;68.66;99812.88;5098816;28;20701;-81
2020/12/15 04:55:20;;;;;;;3.40;3.10;;;;;;;8.04;67.90;99818.06;5096744;28;20203;-80
2020/12/15 04:57:47;;;;;;;3.50;3.30;;;;;;;8.07;67.70;99831.88;5100838;28;20217;-80
2020/12/15 05:00:14;;;;;;;3.33;3.03;;;;;;;8.15;67.76;99826.53;5094191;28;20593;-80
2020/12/15 05:02:41;;;;;;;3.50;3.30;;;;;;;8.18;67.69;99833.41;5095913;28;20203;-80
2020/12/15 05:05:07;;;;;;;3.70;3.50;;;;;;;8.26;66.67;99840.16;5094330;28;20664;-79
2020/12/15 05:07:39;;;;;;;3.90;3.70;;;;;;;8.23;67.13;99840.25;5094895;28;20295;-80
2020/12/15 05:10:05;;;;;;;4.17;3.80;;;;;;;8.11;68.52;99841.31;5093976;28;20265;-80
2020/12/15 05:12:31;;;;;;;4.37;4.07;;;;;;;8.06;67.75;99837.09;5093490;28;20206;-81
2020/12/15 05:14:58;;;;;;;3.77;3.57;;;;;;;7.98;68.42;99826.84;5091912;28;20663;-81
2020/12/15 05:17:24;;;;;;;4.10;3.80;;;;;;;8.05;67.99;99831.03;5089939;28;20213;-81
2020/12/15 05:19:50;;;;;;;3.73;3.43;;;;;;;7.87;70.02;99831.34;5092722;28;20230;-81
2020/12/15 05:22:16;;;;;;;3.70;3.50;;;;;;;7.85;70.67;99835.72;5089380;28;20202;-82
2020/12/15 05:24:46;;;;;;;4.10;3.80;;;;;;;7.80;71.64;99840.16;5092989;28;20207;-81
2020/12/15 05:27:15;;;;;;;3.87;3.57;;;;;;;7.78;71.26;99839.31;5097568;28;20223;-81
2020/12/15 05:29:41;;;;;;;3.43;3.23;;;;;;;7.75;71.22;99829.84;5093781;28;20703;-81
2020/12/15 05:32:09;;;;;;;3.73;3.43;;;;;;;7.82;70.76;99828.84;5077919;28;20266;-81
2020/12/15 05:34:35;;;;;;;3.53;3.33;;;;;;;7.86;69.63;99833.09;5076684;28;20212;-81
2020/12/15 05:37:01;;;;;;;4.00;3.70;;;;;;;7.89;70.22;99842.59;5087327;28;20198;-81
2020/12/15 05:39:28;;;;;;;4.17;3.77;;;;;;;7.96;69.62;99847.66;5093879;28;20223;-81
2020/12/15 05:42:03;;;;;;;3.60;3.30;;;;;;;7.95;70.71;99850.28;5094780;28;20198;-81
2020/12/15 05:44:30;;;;;;;4.10;3.80;;;;;;;7.93;69.92;99857.25;5103504;28;20232;-81
2020/12/15 05:47:01;;;;;;;4.53;4.23;;;;;;;8.00;69.54;99848.44;5108134;28;20223;-81
2020/12/15 05:49:30;;;;;;;4.30;4.00;;;;;;;8.05;69.28;99859.63;5078858;28;20235;-80
2020/12/15 05:51:56;;;;;;;3.90;3.60;;;;;;;8.00;69.62;99864.03;5103634;28;20186;-82
2020/12/15 05:54:23;;;;;;;4.50;4.20;;;;;;;8.02;69.72;99857.06;5111529;28;20195;-81
2020/12/15 05:57:01;;;;;;;4.13;3.83;;;;;;;8.03;70.55;99855.34;5115782;28;20211;-81
2020/12/15 05:59:27;;;;;;;5.20;4.00;;;;;;;8.03;68.74;99857.97;5112907;28;20270;-81
2020/12/15 06:01:54;;;;;;;4.47;4.17;;;;;;;8.07;69.12;99855.25;5108147;28;20203;-80
2020/12/15 06:04:21;;;;;;;4.80;4.40;;;;;;;8.04;69.71;99854.47;5112739;28;20205;-81
2020/12/15 06:06:48;;;;;;;4.60;4.20;;;;;;;8.07;69.24;99844.88;5107287;28;20218;-82
2020/12/15 06:09:15;;;;;;;4.57;4.20;;;;;;;8.04;68.72;99846.66;5112251;28;20221;-81
2020/12/15 06:11:43;;;;;;;4.37;4.07;;;;;;;8.01;68.44;99844.97;5092498;28;20207;-82
2020/12/15 06:14:10;;;;;;;4.50;4.20;;;;;;;8.08;69.30;99846.56;5085338;28;20218;-82
2020/12/15 06:16:37;;;;;;;4.57;4.07;;;;;;;8.08;70.17;99837.91;5094801;28;20209;-82
2020/12/15 06:19:06;;;;;;;4.40;4.10;;;;;;;8.08;69.71;99843.13;5101678;28;20605;-82
2020/12/15 06:21:33;;;;;;;4.50;4.20;;;;;;;8.00;69.33;99847.59;5090354;28;20203;-81
2020/12/15 06:24:01;;;;;;;4.63;4.33;;;;;;;8.07;69.83;99847.47;5087233;28;20215;-81
2020/12/15 06:26:28;;;;;;;4.83;4.43;;;;;;;8.05;69.87;99851.00;5096314;28;20225;-82
2020/12/15 06:28:58;;;;;;;5.10;4.70;;;;;;;8.08;69.37;99850.91;5098111;28;20220;-79
2020/12/15 06:31:24;;;;;;;4.80;4.47;;;;;;;8.06;70.04;99850.09;5095346;28;20225;-81
2020/12/15 06:33:54;;;;;;;5.30;4.90;;;;;;;8.09;70.66;99850.91;5089485;28;20204;-82
2020/12/15 06:36:25;;;;;;;4.73;4.43;;;;;;;8.08;69.95;99856.97;5090456;28;20201;-83
2020/12/15 06:38:51;;;;;;;4.83;4.47;;;;;;;7.95;70.57;99863.28;5090502;28;20576;-82
2020/12/15 06:41:21;;;;;;;4.97;4.60;;;;;;;7.84;70.94;99857.41;5091924;28;20686;-82
2020/12/15 06:43:47;;;;;;;5.13;4.67;;;;;;;7.86;71.69;99861.69;5090933;28;21228;-80
2020/12/15 06:46:13;;;;;;;4.73;4.40;;;;;;;7.93;71.06;99868.50;5094057;28;20223;-80
2020/12/15 06:48:40;;;;;;;5.77;5.33;;;;;;;7.99;70.42;99870.16;5086261;28;20226;-83
2020/12/15 06:51:06;;;;;;;5.27;4.87;;;;;;;7.99;70.89;99870.16;5090648;28;20199;-82
2020/12/15 06:53:32;;;;;;;5.40;5.03;;;;;;;8.02;70.35;99874.41;5087753;28;20211;-83
2020/12/15 06:55:58;;;;;;;5.50;5.10;;;;;;;7.96;71.52;99872.78;5091569;28;20210;-83
2020/12/15 06:58:25;;;;;;;5.80;5.40;;;;;;;7.96;71.80;99873.63;5089399;28;20207;-82
2020/12/15 07:00:51;;;;;;;5.30;4.80;;;;;;;7.92;71.33;99879.75;5091572;28;20203;-83
2020/12/15 07:03:32;;;;;;;5.53;5.13;;;;;;;7.94;72.11;99880.59;5091628;28;20562;-83
2020/12/15 07:06:07;;;;;;;5.60;5.10;;;;;;;7.87;72.30;99875.53;5093511;28;20248;-81
2020/12/15 07:08:33;;;;;;;6.00;5.57;;;;;;;7.90;72.35;99876.34;5092188;28;20252;-84
2020/12/15 07:10:59;;;;;;;5.73;5.17;;;;;;;8.04;76.82;99864.84;5096005;28;20201;-84
2020/12/15 07:13:25;;;;;;;4.80;4.50;;;;;;;8.01;72.85;99873.56;5094117;28;20640;-81
2020/12/15 07:15:51;;;;;;;7.03;5.60;;;;;;;8.03;72.93;99863.16;5097214;28;20649;-82
2020/12/15 07:18:17;;;;;;;6.07;5.67;;;;;;;8.02;72.60;99856.22;5096801;28;20206;-82
2020/12/15 07:20:43;;;;;;;5.80;5.30;;;;;;;8.03;72.22;99861.41;5095445;28;20208;-82
2020/12/15 07:23:10;;;;;;;5.97;5.57;;;;;;;8.02;73.02;99859.69;5099844;28;20204;-82
2020/12/15 07:25:35;;;;;;;6.13;5.63;;;;;;;8.05;72.66;99864.84;5092614;28;20223;-82
2020/12/15 07:28:02;;;;;;;6.80;6.20;;;;;;;8.06;73.22;99868.28;5096389;28;20198;-81
2020/12/15 07:30:29;;;;;;;5.77;5.37;;;;;;;8.09;73.36;99866.50;5096906;28;20283;-81
2020/12/15 07:33:21;;;;;;;6.37;5.80;;;;;;;8.01;73.61;99870.09;5096250;28;20218;-81
2020/12/15 07:35:56;;;;;;;6.07;5.60;;;;;;;7.91;73.85;99865.06;5093071;28;20430;-82
2020/12/15 07:39:15;;;;;;;6.13;5.63;;;;;;;7.94;74.15;99866.75;5075136;28;20235;-82
2020/12/15 07:41:41;;;;;;;6.13;5.67;;;;;;;7.93;74.34;99873.69;5094912;28;20207;-82
2020/12/15 07:44:09;;;;;;;6.73;6.13;;;;;;;8.01;73.51;99883.09;5095620;28;20210;-80
2020/12/15 07:46:36;;;;;;;6.20;5.80;;;;;;;8.03;73.31;99878.75;5098001;28;20232;-82
2020/12/15 07:49:04;;;;;;;6.37;5.67;;;;;;;8.03;73.86;99884.78;5093114;28;20231;-81
2020/12/15 07:51:31;;;;;;;6.23;5.80;;;;;;;8.04;73.88;99890.84;5097936;28;20196;-82
2020/12/15 07:53:59;;;;;;;6.50;6.00;;;;;;;8.05;73.86;99892.56;5094860;28;20680;-82
2020/12/15 07:56:27;;;;;;;5.73;5.33;;;;;;;8.06;73.50;99891.69;5095080;28;20200;-82
2020/12/15 07:58:56;;;;;;;6.00;5.60;;;;;;;7.98;73.95;99883.16;5089554;28;20276;-82
2020/12/15 08:02:18;;;;;;;5.77;5.37;;;;;;;7.99;74.18;99885.75;5042940;28;20275;-82
2020/12/15 08:04:45;;;;;;;7.00;6.50;;;;;;;7.98;73.92;99885.75;5061708;28;20207;-81
2020/12/15 08:07:11;;;;;;;5.70;5.30;;;;;;;8.00;74.32;99887.44;5086111;28;20235;-81
2020/12/15 08:09:37;;;;;;;5.83;5.43;;;;;;;7.99;74.65;99895.25;5093054;28;20723;-81
2020/12/15 08:12:03;;;;;;;6.77;6.27;;;;;;;7.89;75.32;99890.22;5098944;28;20193;-81
2020/12/15 08:14:45;;;;;;;6.67;6.07;;;;;;;7.94;75.53;99901.38;5085641;28;20552;-80
2020/12/15 08:17:12;;;;;;;6.37;5.87;;;;;;;7.97;75.41;99913.50;5093298;28;20206;-81
2020/12/15 08:19:39;;;;;;;6.37;5.87;;;;;;;7.95;75.40;99904.88;5093157;28;20253;-81
2020/12/15 08:22:06;;;;;;;6.67;6.27;;;;;;;7.96;75.27;99909.16;5092681;28;20214;-82
2020/12/15 08:24:36;;;;;;;7.17;6.57;;;;;;;7.96;75.22;99909.16;5089779;28;20660;-82
2020/12/15 08:27:02;;;;;;;6.60;6.10;;;;;;;7.93;76.05;99917.03;5092583;28;20587;-82
2020/12/15 08:30:24;;;;;;;6.87;6.37;;;;;;;7.98;75.95;99910.00;5089384;28;20245;-82
2020/12/15 08:48:57;;;;;;;6.60;5.93;;;;;;;8.11;76.24;99916.72;5208825;22;20295;-82
2020/12/15 08:51:24;;;;;;;6.40;5.90;;;;;;;8.20;76.68;99925.22;5061358;28;20205;-82
2020/12/15 08:53:50;;;;;;;6.63;5.93;;;;;;;8.24;75.95;99919.94;5054559;28;20220;-83
2020/12/15 08:56:16;;;;;;;6.33;5.87;;;;;;;8.23;75.42;99918.22;5057915;28;20206;-81
2020/12/15 08:58:43;;;;;;;6.20;5.67;;;;;;;8.29;75.44;99918.13;5061782;28;20730;-81
2020/12/15 09:01:08;;;;;;;6.30;5.80;;;;;;;8.32;75.17;99923.28;5063134;28;20203;-79
2020/12/15 09:03:58;;;;;;;6.90;6.40;;;;;;;8.34;75.28;99938.84;5058272;28;20212;-81
2020/12/15 09:06:31;;;;;;;6.20;5.70;;;;;;;8.29;75.58;99941.53;5060080;28;20219;-81
2020/12/15 09:08:57;;;;;;;7.17;6.67;;;;;;;8.35;75.05;99940.56;5059239;28;20227;-80
2020/12/15 09:11:22;;;;;;;6.70;6.20;;;;;;;8.39;75.07;99947.44;5058240;28;20251;-80
2020/12/15 09:14:22;;;;;;;6.93;6.33;;;;;;;8.47;75.52;99944.72;5055611;28;20666;-82
2020/12/15 09:16:52;;;;;;;6.43;6.03;;;;;;;8.42;75.28;99949.97;5060175;28;20193;-81
2020/12/15 09:23:34;;;;;;;6.70;6.20;;;;;;;8.51;75.19;99933.38;4922812;29;20571;-82
2020/12/15 09:26:45;;;;;;;;;;;;;;;;;;;;;
2020/12/15 09:32:20;;;;;;;6.87;6.27;;;;;;;8.63;75.65;99940.09;4985452;28;20292;-80
2020/12/15 09:34:47;;;;;;;6.40;6.00;;;;;;;8.65;75.55;99946.13;5010068;28;20197;-80
2020/12/15 09:37:13;;;;;;;6.70;6.23;;;;;;;8.73;75.33;99950.28;5012181;28;20232;-81
2020/12/15 09:39:40;;;;;;;6.13;5.73;;;;;;;8.68;76.32;99946.94;5032019;28;20221;-80
2020/12/15 09:42:06;;;;;;;5.87;5.47;;;;;;;8.50;76.00;99947.25;5036929;28;20208;-80
2020/12/15 09:44:32;;;;;;;5.87;5.37;;;;;;;8.52;76.15;99955.88;5032054;28;20213;-80
2020/12/15 09:46:58;;;;;;;6.00;5.50;;;;;;;8.56;76.01;99949.72;5035350;28;20284;-80
2020/12/15 09:49:24;;;;;;;6.00;5.60;;;;;;;8.64;75.87;99950.47;5032451;28;20225;-81
2020/12/15 09:51:50;;;;;;;6.00;5.60;;;;;;;8.67;75.06;99947.78;5041468;28;20247;-81
2020/12/15 09:54:16;;;;;;;5.77;5.27;;;;;;;8.70;75.09;99958.16;5028910;28;20212;-81
2020/12/15 09:56:45;;;;;;;6.73;6.33;;;;;;;8.68;75.29;99964.25;5040461;28;20271;-81
2020/12/15 09:59:11;;;;;;;6.73;6.23;;;;;;;8.63;75.12;99976.50;5027531;28;20222;-81
2020/12/15 10:01:39;;;;;;;6.07;5.67;;;;;;;8.75;75.21;99974.53;5024844;28;20706;-80
2020/12/15 10:07:26;;;;;;;6.20;5.70;;;;;;;8.95;75.78;99968.94;4980599;28;20229;-79
2020/12/15 10:09:57;;;;;;;6.20;5.80;;;;;;;8.95;76.16;99970.69;5034538;28;20282;-79
2020/12/15 10:12:24;;;;;;;6.37;5.87;;;;;;;8.94;75.63;99962.03;5029827;28;20216;-79
2020/12/15 10:14:50;;;;;;;5.93;5.37;;;;;;;9.04;75.47;99954.00;5028701;28;20628;-80
2020/12/15 10:17:16;;;;;;;7.77;5.93;;;;;;;9.12;75.01;99966.00;5034301;28;20224;-80
2020/12/15 10:19:43;;;;;;;5.83;5.43;;;;;;;9.24;74.32;99964.03;5031294;28;20309;-79
2020/12/15 10:22:08;;;;;;;5.63;5.23;;;;;;;9.33;73.95;99977.69;5031285;28;20691;-79
2020/12/15 10:24:34;;;;;;;5.47;5.07;;;;;;;9.29;73.50;99967.38;5023355;28;20214;-79
2020/12/15 10:27:00;;;;;;;5.50;5.10;;;;;;;9.35;73.55;99967.25;5033062;28;20284;-79
2020/12/15 10:29:29;;;;;;;6.00;5.60;;;;;;;9.40;73.95;99964.56;5033574;28;20310;-79
2020/12/15 10:31:55;;;;;;;6.57;6.07;;;;;;;9.42;74.08;99961.03;5033116;28;20206;-79
2020/12/15 10:34:21;;;;;;;5.43;4.93;;;;;;;9.51;73.68;99962.56;5034550;28;20263;-79
2020/12/15 10:36:47;;;;;;;6.13;5.33;;;;;;;9.32;74.14;99973.38;5038035;28;20225;-79
2020/12/15 10:39:13;;;;;;;6.17;5.67;;;;;;;9.25;73.85;99976.16;5030910;28;20225;-78
2020/12/15 10:41:41;;;;;;;6.03;5.47;;;;;;;9.34;74.55;99974.22;5034842;28;20198;-78
2020/12/15 10:44:12;;;;;;;5.33;5.03;;;;;;;9.35;73.88;99969.84;5033111;28;20213;-77
2020/12/15 10:46:39;;;;;;;5.90;5.40;;;;;;;9.39;74.12;99970.66;5034494;28;20272;-79
2020/12/15 10:49:05;;;;;;;5.77;5.27;;;;;;;9.37;73.95;99967.22;5034516;28;20225;-78
2020/12/15 10:51:31;;;;;;;6.33;5.57;;;;;;;9.36;73.85;99971.59;5035562;28;20202;-77
2020/12/15 10:53:57;;;;;;;6.37;5.70;;;;;;;9.35;74.34;99967.25;5031763;28;20205;-78
2020/12/15 10:56:23;;;;;;;6.23;5.83;;;;;;;9.37;74.03;99972.44;5035781;28;20235;-79
2020/12/15 10:58:49;;;;;;;5.97;5.47;;;;;;;9.27;73.87;99976.97;5025845;28;20267;-77
2020/12/15 11:01:15;;;;;;;6.80;6.20;;;;;;;9.27;73.88;99979.56;5028131;28;20263;-78
2020/12/15 11:03:42;;;;;;;6.40;5.90;;;;;;;9.09;74.28;99978.22;5034524;28;20216;-82
2020/12/15 11:06:08;;;;;;;6.73;6.10;;;;;;;9.00;74.80;99955.84;5034949;28;20231;-81
2020/12/15 11:08:36;;;;;;;7.20;6.60;;;;;;;9.06;75.00;99963.53;5034450;28;20200;-82
2020/12/15 11:25:00;;;;;;;8.17;6.57;;;;;;;8.78;77.44;99958.00;4960199;28;20290;-80
2020/12/15 11:27:29;;;;;;;8.50;6.40;;;;;;;8.92;78.00;99942.97;5021480;28;20204;-82
2020/12/15 11:33:30;;;;;;;7.53;6.93;;;;;;;8.92;78.48;99942.97;4978688;28;20245;-80
2020/12/15 11:44:10;;;;;;;6.67;6.17;;;;;;;9.24;77.76;99943.19;5035419;28;20270;-79
2020/12/15 11:46:36;;;;;;;7.03;6.43;;;;;;;9.46;77.50;99946.19;5047643;28;20205;-80
2020/12/15 11:49:02;;;;;;;7.87;5.90;;;;;;;9.60;77.23;99940.66;5038124;28;20228;-86
2020/12/15 11:51:28;;;;;;;6.57;6.07;;;;;;;9.52;76.31;99939.09;5039987;28;20201;-82
2020/12/15 11:53:54;;;;;;;6.30;5.80;;;;;;;9.49;76.58;99931.34;5038165;28;20209;-79
2020/12/15 11:56:20;;;;;;;6.70;6.27;;;;;;;9.52;77.22;99930.41;5044931;28;20243;-82
2020/12/15 11:58:46;;;;;;;7.07;6.47;;;;;;;9.33;76.87;99922.16;5041634;28;20220;-80
2020/12/15 12:01:13;;;;;;;6.93;6.43;;;;;;;9.25;77.22;99921.47;5045559;28;20231;-82
2020/12/15 12:03:39;;;;;;;6.50;5.90;;;;;;;9.31;78.29;99923.94;5044528;28;20201;-81
2020/12/15 12:09:38;;;;;;;6.43;5.93;;;;;;;9.40;78.93;99917.69;5041523;28;20220;-83
2020/12/15 12:15:29;;;;;;;5.87;5.37;;;;;;;9.54;78.43;99926.88;5044296;28;20329;-82
2020/12/15 12:17:57;;;;;;;5.60;5.20;;;;;;;9.58;77.68;99922.47;5046038;28;20267;-82
2020/12/15 12:20:23;;;;;;;5.57;5.17;;;;;;;9.59;77.50;99929.38;5050575;28;20225;-80
2020/12/15 12:22:49;;;;;;;6.70;6.20;;;;;;;9.56;76.83;99937.28;5041686;28;20448;-82
2020/12/15 12:25:18;;;;;;;6.77;6.27;;;;;;;9.62;76.81;99933.66;5055072;28;20656;-82
2020/12/15 12:28:01;;;;;;;6.87;6.17;;;;;;;9.59;76.76;99928.50;5046757;28;20214;-83
2020/12/15 12:30:28;;;;;;;6.43;5.93;;;;;;;9.49;77.28;99920.94;5049793;28;20643;-83
2020/12/15 12:32:54;;;;;;;6.23;5.63;;;;;;;9.53;77.41;99914.75;5048881;28;20197;-85
2020/12/15 12:35:21;;;;;;;6.33;5.77;;;;;;;9.49;77.23;99928.75;5057554;28;20268;-82
2020/12/15 12:37:47;;;;;;;6.70;6.20;;;;;;;9.45;76.45;99928.84;5050415;28;20228;-81
2020/12/15 12:40:13;;;;;;;6.90;6.40;;;;;;;9.54;77.78;99918.22;5055408;28;20744;-81
2020/12/15 12:42:44;;;;;;;6.87;6.30;;;;;;;9.55;77.09;99912.09;5050646;28;20217;-81
2020/12/15 12:45:19;;;;;;;7.60;6.93;;;;;;;9.67;77.75;99916.16;5052986;28;20204;-83
2020/12/15 12:47:45;;;;;;;7.23;6.57;;;;;;;9.62;76.57;99911.06;5042092;28;20205;-81